Time;durP1;ratioP1;P1;durP2;ratioP2;P2;SDS_P1;SDS_P2;PMS_P1;PMS_P2;Temp;Humidity;BMP_temperature;BMP_pressure;BME280_temperature;BME280_humidity;BME280_pressure;Samples;Min_cycle;Max_cycle;Signal;HPM_P1;HPM_P2
2023/04/07 00:00:28;;;;;;;10.52;5.70;;;11.10;82.00;;;;;;5020932;28;20029;-64
2023/04/07 00:02:54;;;;;;;9.93;5.50;;;11.10;82.00;;;;;;5028165;28;20040;-64
2023/04/07 00:05:20;;;;;;;10.50;6.05;;;11.10;82.10;;;;;;5025317;28;20037;-71
2023/04/07 00:07:46;;;;;;;10.07;5.88;;;11.10;82.20;;;;;;5024857;28;20025;-64
2023/04/07 00:10:11;;;;;;;10.50;5.43;;;11.10;82.20;;;;;;5026854;28;20145;-72
2023/04/07 00:12:37;;;;;;;10.15;6.38;;;11.10;82.50;;;;;;5012151;28;20030;-72
2023/04/07 00:15:03;;;;;;;14.43;6.85;;;11.10;82.60;;;;;;5018897;28;20018;-72
2023/04/07 00:17:29;;;;;;;10.95;6.32;;;11.00;82.90;;;;;;5044085;28;20633;-72
2023/04/07 00:19:55;;;;;;;14.30;6.07;;;11.00;82.80;;;;;;5039529;28;20224;-71
2023/04/07 00:22:21;;;;;;;12.65;5.70;;;11.00;82.90;;;;;;5027137;28;20446;-71
2023/04/07 00:24:46;;;;;;;11.90;5.72;;;11.00;83.10;;;;;;5046052;28;20035;-63
2023/04/07 00:27:12;;;;;;;9.05;5.05;;;11.00;83.10;;;;;;5035205;28;20041;-71
2023/04/07 00:29:38;;;;;;;9.75;6.03;;;11.00;83.10;;;;;;5019304;28;20032;-62
2023/04/07 00:32:04;;;;;;;11.35;6.40;;;11.00;83.30;;;;;;5043184;28;20451;-71
2023/04/07 00:34:29;;;;;;;9.77;5.75;;;11.00;83.30;;;;;;5038221;28;20041;-71
2023/04/07 00:36:55;;;;;;;11.10;6.53;;;11.00;83.40;;;;;;5021899;28;20115;-72
2023/04/07 00:39:21;;;;;;;8.57;4.85;;;11.00;83.40;;;;;;5026300;28;20049;-72
2023/04/07 00:41:47;;;;;;;9.60;5.20;;;11.00;83.40;;;;;;5025835;28;20033;-64
2023/04/07 00:44:13;;;;;;;7.72;3.88;;;11.00;83.50;;;;;;5048622;28;20033;-72
2023/04/07 00:46:40;;;;;;;10.55;5.80;;;11.00;83.60;;;;;;5021028;28;20048;-62
2023/04/07 00:49:06;;;;;;;7.13;4.07;;;11.00;83.90;;;;;;5021739;28;20083;-71
2023/04/07 00:51:32;;;;;;;8.70;4.15;;;11.00;84.00;;;;;;5020664;28;20440;-64
2023/04/07 00:53:58;;;;;;;6.43;3.83;;;11.00;84.10;;;;;;5040264;28;20105;-64
2023/04/07 00:56:24;;;;;;;7.40;4.65;;;11.00;84.10;;;;;;5028816;28;20035;-72
2023/04/07 00:58:50;;;;;;;8.43;4.07;;;11.00;84.00;;;;;;5047797;28;20112;-72
2023/04/07 01:01:23;;;;;;;6.32;4.35;;;11.00;84.00;;;;;;5024673;28;20024;-72
2023/04/07 01:03:57;;;;;;;5.63;3.65;;;11.10;83.80;;;;;;5033806;28;20496;-63
2023/04/07 01:06:26;;;;;;;4.78;3.60;;;11.10;83.80;;;;;;5026859;28;20025;-64
2023/04/07 01:09:21;;;;;;;9.70;4.93;;;11.10;83.80;;;;;;5041825;28;20538;-72
2023/04/07 01:12:15;;;;;;;11.25;4.38;;;11.10;83.90;;;;;;5041992;28;20025;-64
2023/04/07 01:14:49;;;;;;;6.80;3.60;;;11.10;84.00;;;;;;5045927;28;20079;-64
2023/04/07 01:17:17;;;;;;;5.45;4.32;;;11.00;84.10;;;;;;5038165;28;20037;-64
2023/04/07 01:19:51;;;;;;;7.25;4.50;;;11.00;84.20;;;;;;5047492;28;20174;-63
2023/04/07 01:22:22;;;;;;;7.25;4.28;;;11.00;84.10;;;;;;5043115;28;20108;-64
2023/04/07 01:25:15;;;;;;;7.47;4.70;;;11.00;84.10;;;;;;5045692;28;20040;-63
2023/04/07 01:28:14;;;;;;;8.07;4.60;;;11.10;84.00;;;;;;5038143;28;20346;-64
2023/04/07 01:30:42;;;;;;;8.73;5.03;;;11.10;84.00;;;;;;5043481;28;20033;-72
2023/04/07 01:33:10;;;;;;;10.95;5.22;;;11.00;84.20;;;;;;5026126;28;20037;-71
2023/04/07 01:35:38;;;;;;;7.25;5.03;;;11.00;84.30;;;;;;5044428;28;20435;-71
2023/04/07 01:38:05;;;;;;;7.82;4.05;;;11.00;84.30;;;;;;5039256;28;20033;-64
2023/04/07 01:40:33;;;;;;;9.25;5.15;;;11.00;84.20;;;;;;5047050;28;20132;-64
2023/04/07 01:43:01;;;;;;;12.32;5.85;;;11.00;84.20;;;;;;5036020;28;20036;-72
2023/04/07 01:45:28;;;;;;;12.02;5.50;;;10.90;84.30;;;;;;5028300;28;20044;-64
2023/04/07 01:47:54;;;;;;;9.27;4.35;;;10.90;84.30;;;;;;5002344;28;20033;-64
2023/04/07 01:50:21;;;;;;;8.02;4.50;;;10.90;84.40;;;;;;5022038;28;20033;-64
2023/04/07 01:52:48;;;;;;;8.75;4.13;;;10.90;84.30;;;;;;5023484;28;20041;-64
2023/04/07 01:55:13;;;;;;;6.15;3.65;;;10.90;84.40;;;;;;5046584;28;20520;-64
2023/04/07 01:57:39;;;;;;;6.90;3.63;;;10.90;84.40;;;;;;5039346;28;20021;-64
2023/04/07 02:00:05;;;;;;;10.07;4.57;;;10.90;84.80;;;;;;5041674;28;20041;-63
2023/04/07 02:02:40;;;;;;;8.55;4.22;;;10.90;84.20;;;;;;5026638;28;20385;-64
2023/04/07 02:05:11;;;;;;;7.32;4.15;;;10.90;84.30;;;;;;5038058;28;20025;-72
2023/04/07 02:07:54;;;;;;;5.47;3.40;;;10.90;84.20;;;;;;5046318;28;20033;-64
2023/04/07 02:10:22;;;;;;;8.23;3.60;;;10.90;84.10;;;;;;5021338;28;20113;-64
2023/04/07 02:12:48;;;;;;;5.00;3.30;;;10.90;84.10;;;;;;5042180;28;20037;-64
2023/04/07 02:15:15;;;;;;;5.88;3.42;;;10.90;84.20;;;;;;5032820;28;20029;-71
2023/04/07 02:17:46;;;;;;;6.32;3.05;;;10.90;84.20;;;;;;5021618;28;20025;-72
2023/04/07 02:20:12;;;;;;;5.45;2.72;;;10.90;84.30;;;;;;5044704;28;20040;-64
2023/04/07 02:22:39;;;;;;;6.70;3.45;;;10.90;84.30;;;;;;5020465;28;20067;-72
2023/04/07 02:25:29;;;;;;;4.55;3.47;;;10.80;84.20;;;;;;5024144;28;20059;-64
2023/04/07 02:27:56;;;;;;;7.65;3.42;;;10.80;84.20;;;;;;5041290;28;20068;-64
2023/04/07 02:30:22;;;;;;;4.00;2.45;;;10.70;84.20;;;;;;5017436;28;20025;-64
2023/04/07 02:32:48;;;;;;;6.90;3.33;;;10.80;84.30;;;;;;5040566;28;20105;-71
2023/04/07 02:35:15;;;;;;;8.13;3.38;;;10.80;84.20;;;;;;5045873;28;20115;-71
2023/04/07 02:37:41;;;;;;;6.22;3.22;;;10.80;84.10;;;;;;5023109;28;20384;-72
2023/04/07 02:40:08;;;;;;;7.88;4.30;;;10.80;84.20;;;;;;5039180;28;20043;-71
2023/04/07 02:42:35;;;;;;;6.07;3.78;;;10.70;84.30;;;;;;5037302;28;20040;-64
2023/04/07 02:45:01;;;;;;;6.00;3.17;;;10.70;84.30;;;;;;5038157;28;20044;-64
2023/04/07 02:47:26;;;;;;;9.20;4.00;;;10.70;84.30;;;;;;5042771;28;20044;-63
2023/04/07 02:49:52;;;;;;;8.18;3.25;;;10.70;84.20;;;;;;5038080;28;20491;-71
2023/04/07 02:52:18;;;;;;;6.78;3.58;;;10.80;84.20;;;;;;5027799;28;20443;-71
2023/04/07 02:54:43;;;;;;;4.82;3.78;;;10.80;84.10;;;;;;5039157;28;20119;-64
2023/04/07 02:57:09;;;;;;;7.13;3.55;;;10.80;84.20;;;;;;5043348;28;20037;-72
2023/04/07 02:59:35;;;;;;;10.48;4.43;;;10.80;84.10;;;;;;5044744;28;20098;-64
2023/04/07 03:02:01;;;;;;;4.15;2.90;;;10.80;84.10;;;;;;5048885;28;20106;-65
2023/04/07 03:04:27;;;;;;;5.10;3.22;;;10.80;84.10;;;;;;5029013;28;20029;-72
2023/04/07 03:06:52;;;;;;;5.10;3.10;;;10.80;84.20;;;;;;5043498;28;20082;-64
2023/04/07 03:09:18;;;;;;;16.30;3.72;;;10.80;84.20;;;;;;5046167;28;20037;-71
2023/04/07 03:11:44;;;;;;;5.00;3.08;;;10.70;84.10;;;;;;5047992;28;20129;-72
2023/04/07 03:14:09;;;;;;;5.75;3.67;;;10.80;84.10;;;;;;5046604;28;20396;-63
2023/04/07 03:16:35;;;;;;;9.50;3.97;;;10.70;84.20;;;;;;5043679;28;20032;-71
2023/04/07 03:19:01;;;;;;;9.63;3.35;;;10.70;84.40;;;;;;5023431;28;20396;-63
2023/04/07 03:21:27;;;;;;;5.95;3.08;;;10.70;84.40;;;;;;5036924;28;20053;-71
2023/04/07 03:23:54;;;;;;;5.65;3.10;;;10.70;84.50;;;;;;5022431;28;20030;-72
2023/04/07 03:26:20;;;;;;;6.90;3.33;;;10.70;84.30;;;;;;5047096;28;20099;-64
2023/04/07 03:28:46;;;;;;;4.45;2.75;;;10.70;84.20;;;;;;5023609;28;20044;-64
2023/04/07 03:31:11;;;;;;;4.72;3.22;;;10.80;84.10;;;;;;5044513;28;20037;-72
2023/04/07 03:33:37;;;;;;;10.30;3.78;;;10.80;84.10;;;;;;5045626;28;20043;-72
2023/04/07 03:36:03;;;;;;;4.95;3.25;;;10.80;84.10;;;;;;5044788;28;20087;-72
2023/04/07 03:38:29;;;;;;;4.20;3.17;;;10.80;84.10;;;;;;5028807;28;20532;-63
2023/04/07 03:40:54;;;;;;;4.15;2.58;;;10.80;84.10;;;;;;5048755;28;20122;-63
2023/04/07 03:43:21;;;;;;;3.45;2.70;;;10.80;84.10;;;;;;5028142;28;20075;-64
2023/04/07 03:45:48;;;;;;;3.88;2.70;;;10.80;83.90;;;;;;5039580;28;20029;-72
2023/04/07 03:48:20;;;;;;;7.13;2.70;;;10.80;83.90;;;;;;5024712;28;20183;-63
2023/04/07 03:50:46;;;;;;;4.40;2.45;;;10.80;83.90;;;;;;5011200;28;20041;-64
2023/04/07 03:53:15;;;;;;;4.03;2.13;;;10.80;83.90;;;;;;5041643;28;20041;-72
2023/04/07 03:55:42;;;;;;;2.22;1.70;;;10.80;83.90;;;;;;5039105;28;20018;-72
2023/04/07 03:58:08;;;;;;;7.38;2.92;;;10.80;83.80;;;;;;5044330;28;20039;-72
2023/04/07 04:00:34;;;;;;;3.53;1.77;;;10.90;83.80;;;;;;5042430;28;20036;-71
2023/04/07 04:03:00;;;;;;;5.53;2.50;;;10.80;83.70;;;;;;5045069;28;20163;-64
2023/04/07 04:05:26;;;;;;;6.18;3.15;;;10.90;83.70;;;;;;5042728;28;20794;-64
2023/04/07 04:07:52;;;;;;;7.80;3.47;;;10.90;83.70;;;;;;5022636;28;20109;-64
2023/04/07 04:10:21;;;;;;;2.97;2.47;;;10.80;83.70;;;;;;5026268;28;20076;-64
2023/04/07 04:12:47;;;;;;;4.68;3.50;;;10.80;83.70;;;;;;5028448;28;20163;-72
2023/04/07 04:15:14;;;;;;;4.25;2.38;;;10.80;83.80;;;;;;5046497;28;20021;-63
2023/04/07 04:17:46;;;;;;;2.88;1.77;;;10.80;83.80;;;;;;5044232;28;20068;-65
2023/04/07 04:20:12;;;;;;;4.10;2.50;;;10.90;83.80;;;;;;4987047;28;20052;-64
2023/04/07 04:22:38;;;;;;;3.95;2.22;;;10.80;83.80;;;;;;5016746;28;20389;-72
2023/04/07 04:25:04;;;;;;;2.80;2.28;;;10.80;83.80;;;;;;5005477;28;20469;-72
2023/04/07 04:27:30;;;;;;;2.97;1.83;;;10.80;83.80;;;;;;5026805;28;20029;-71
2023/04/07 04:30:03;;;;;;;5.18;2.67;;;10.90;83.90;;;;;;5024882;28;20120;-71
2023/04/07 04:32:28;;;;;;;2.08;1.85;;;10.80;83.70;;;;;;5023606;28;20048;-70
2023/04/07 04:34:54;;;;;;;3.17;2.00;;;10.90;83.80;;;;;;5016198;28;20037;-72
2023/04/07 04:37:20;;;;;;;5.55;2.80;;;10.80;83.60;;;;;;5017237;28;20025;-62
2023/04/07 04:39:46;;;;;;;5.53;2.10;;;10.90;83.70;;;;;;5026396;28;20038;-71
2023/04/07 04:42:11;;;;;;;3.55;1.52;;;10.90;83.70;;;;;;5022674;28;20026;-72
2023/04/07 04:44:37;;;;;;;3.15;2.08;;;10.80;83.70;;;;;;5020210;28;20060;-71
2023/04/07 04:47:03;;;;;;;6.97;3.35;;;10.80;83.70;;;;;;5025298;28;20034;-64
2023/04/07 04:49:28;;;;;;;3.95;2.47;;;10.80;83.80;;;;;;5019500;28;20891;-64
2023/04/07 04:51:54;;;;;;;3.78;2.00;;;10.70;83.90;;;;;;5027705;28;20034;-64
2023/04/07 04:54:20;;;;;;;3.28;2.35;;;10.70;84.00;;;;;;5017961;28;20032;-64
2023/04/07 04:56:45;;;;;;;3.85;2.70;;;10.70;83.90;;;;;;5017552;28;20060;-72
2023/04/07 04:59:11;;;;;;;6.53;2.60;;;10.80;83.80;;;;;;5023926;28;20131;-64
2023/04/07 05:01:37;;;;;;;4.63;2.85;;;10.80;83.80;;;;;;5016597;28;20570;-71
2023/04/07 05:04:02;;;;;;;4.35;2.30;;;10.80;83.80;;;;;;5018567;28;20427;-73
2023/04/07 05:06:28;;;;;;;4.30;2.15;;;10.80;83.80;;;;;;5018048;28;20112;-64
2023/04/07 05:08:54;;;;;;;5.57;2.95;;;10.80;83.80;;;;;;5015516;28;20026;-63
2023/04/07 05:11:20;;;;;;;2.85;2.08;;;10.80;83.70;;;;;;5019544;28;20516;-64
2023/04/07 05:13:46;;;;;;;3.35;1.92;;;10.90;83.60;;;;;;5018583;28;20037;-63
2023/04/07 05:16:12;;;;;;;4.68;2.88;;;10.90;83.50;;;;;;5026253;28;20083;-64
2023/04/07 05:18:38;;;;;;;3.60;2.38;;;10.90;83.40;;;;;;5014912;28;20044;-63
2023/04/07 05:21:04;;;;;;;6.47;3.38;;;10.80;83.30;;;;;;5035879;28;20033;-63
2023/04/07 05:23:30;;;;;;;4.30;3.17;;;10.80;83.50;;;;;;5043097;28;20041;-64
2023/04/07 05:25:55;;;;;;;3.78;2.55;;;10.80;83.60;;;;;;5010248;28;20041;-63
2023/04/07 05:28:21;;;;;;;5.72;2.72;;;10.70;83.70;;;;;;5021183;28;20120;-71
2023/04/07 05:30:47;;;;;;;7.13;3.08;;;10.70;83.70;;;;;;5043304;28;20060;-64
2023/04/07 05:33:13;;;;;;;6.03;2.22;;;10.80;83.70;;;;;;5017209;28;20507;-72
2023/04/07 05:35:39;;;;;;;3.95;2.03;;;10.80;83.70;;;;;;5040035;28;20021;-72
2023/04/07 05:38:05;;;;;;;3.17;2.17;;;10.70;83.60;;;;;;5035040;28;20036;-72
2023/04/07 05:40:31;;;;;;;5.82;3.05;;;10.70;83.80;;;;;;5045715;28;20495;-70
2023/04/07 05:42:56;;;;;;;4.72;2.13;;;10.70;84.00;;;;;;5023305;28;20033;-72
2023/04/07 05:45:22;;;;;;;8.57;2.10;;;10.70;84.00;;;;;;5038628;28;20148;-71
2023/04/07 05:47:49;;;;;;;6.45;2.45;;;10.70;84.00;;;;;;5033697;28;20083;-72
2023/04/07 05:50:16;;;;;;;5.07;2.47;;;10.70;83.90;;;;;;4995659;28;20079;-72
2023/04/07 05:52:41;;;;;;;4.05;2.30;;;10.80;83.80;;;;;;5039652;28;20036;-63
2023/04/07 05:55:07;;;;;;;2.42;1.55;;;10.80;83.80;;;;;;5040643;28;20407;-64
2023/04/07 05:57:33;;;;;;;4.25;3.05;;;10.80;83.70;;;;;;5026808;28;20490;-71
2023/04/07 05:59:59;;;;;;;6.10;2.72;;;10.80;83.60;;;;;;5047701;28;20031;-72
2023/04/07 06:02:24;;;;;;;4.80;2.45;;;10.90;83.60;;;;;;5040335;28;20418;-72
2023/04/07 06:04:50;;;;;;;5.40;2.50;;;10.90;83.50;;;;;;5016550;28;20033;-72
2023/04/07 06:07:16;;;;;;;3.97;1.80;;;10.90;83.50;;;;;;5038972;28;20037;-72
2023/04/07 06:09:42;;;;;;;4.70;2.97;;;10.90;83.40;;;;;;5013755;28;20459;-71
2023/04/07 06:12:09;;;;;;;6.95;2.70;;;10.90;83.30;;;;;;5015514;28;20143;-64
2023/04/07 06:14:35;;;;;;;7.65;3.03;;;10.90;83.50;;;;;;5043275;28;20055;-72
2023/04/07 06:17:00;;;;;;;12.48;3.67;;;10.80;83.60;;;;;;5007459;28;20431;-63
2023/04/07 06:19:26;;;;;;;3.75;2.42;;;10.80;83.70;;;;;;5044658;28;20682;-71
2023/04/07 06:21:52;;;;;;;3.80;2.08;;;10.80;83.90;;;;;;5035670;28;20508;-64
2023/04/07 06:24:21;;;;;;;3.42;2.10;;;10.80;84.00;;;;;;5036874;28;20021;-63
2023/04/07 06:26:47;;;;;;;4.63;1.50;;;10.80;83.90;;;;;;5042260;28;20037;-71
2023/04/07 06:29:13;;;;;;;6.45;2.75;;;10.80;83.80;;;;;;5041816;28;20060;-72
2023/04/07 06:31:39;;;;;;;4.65;2.50;;;10.90;83.80;;;;;;5051633;28;20383;-65
2023/04/07 06:34:05;;;;;;;5.10;3.00;;;10.90;83.70;;;;;;5051070;28;20039;-70
2023/04/07 06:36:31;;;;;;;4.82;2.30;;;10.90;83.50;;;;;;5039822;28;20432;-64
2023/04/07 06:38:57;;;;;;;8.43;2.58;;;10.90;83.50;;;;;;5047509;28;20078;-70
2023/04/07 06:41:23;;;;;;;2.75;1.85;;;10.90;83.50;;;;;;5032215;28;20021;-71
2023/04/07 06:43:52;;;;;;;2.25;1.73;;;10.90;83.40;;;;;;5046128;28;20063;-71
2023/04/07 06:46:18;;;;;;;4.82;2.13;;;11.00;83.50;;;;;;5046467;28;20033;-64
2023/04/07 06:48:44;;;;;;;1.70;1.15;;;11.00;83.50;;;;;;5022611;28;20107;-72
2023/04/07 06:51:10;;;;;;;5.35;2.08;;;11.00;83.40;;;;;;5026594;28;20468;-72
2023/04/07 06:53:36;;;;;;;2.90;1.63;;;11.10;83.40;;;;;;5043728;28;20106;-71
2023/04/07 06:56:10;;;;;;;2.97;1.45;;;11.10;83.30;;;;;;5038788;28;20535;-63
2023/04/07 06:58:36;;;;;;;5.40;1.75;;;11.20;83.30;;;;;;5039977;28;20021;-64
2023/04/07 07:01:04;;;;;;;2.22;1.67;;;11.10;83.20;;;;;;5044852;28;20465;-64
2023/04/07 07:03:31;;;;;;;3.75;1.70;;;11.20;83.30;;;;;;5046599;28;20883;-70
2023/04/07 07:06:00;;;;;;;2.95;1.65;;;11.20;83.30;;;;;;5017438;28;20034;-62
2023/04/07 07:08:27;;;;;;;2.72;1.52;;;11.20;83.10;;;;;;5049627;28;20041;-70
2023/04/07 07:10:54;;;;;;;3.70;2.42;;;11.20;83.10;;;;;;5041116;28;20025;-72
2023/04/07 07:13:25;;;;;;;2.60;1.45;;;11.30;83.10;;;;;;5042665;28;20420;-72
2023/04/07 07:15:51;;;;;;;2.10;1.45;;;11.40;83.00;;;;;;5047140;28;20385;-64
2023/04/07 07:18:18;;;;;;;2.55;1.65;;;11.40;82.70;;;;;;5027512;28;20029;-72
2023/04/07 07:20:44;;;;;;;1.92;1.27;;;11.40;82.60;;;;;;5041985;28;20041;-71
2023/04/07 07:23:10;;;;;;;2.72;1.40;;;11.40;82.70;;;;;;5043963;28;20251;-64
2023/04/07 07:25:36;;;;;;;3.35;1.35;;;11.40;82.80;;;;;;5043283;28;20037;-71
2023/04/07 07:28:01;;;;;;;5.07;1.67;;;11.40;82.80;;;;;;5018376;28;20037;-72
2023/04/07 07:30:27;;;;;;;2.17;1.08;;;11.40;82.80;;;;;;5018089;28;20037;-65
2023/04/07 07:32:54;;;;;;;1.17;0.90;;;11.40;82.70;;;;;;5048718;28;20090;-71
2023/04/07 07:35:21;;;;;;;1.55;0.90;;;11.50;82.80;;;;;;5029935;28;20025;-71
2023/04/07 07:37:47;;;;;;;1.60;1.20;;;11.60;82.70;;;;;;5042801;28;20045;-63
2023/04/07 07:40:13;;;;;;;2.38;1.00;;;11.60;82.60;;;;;;5041661;28;20029;-64
2023/04/07 07:42:39;;;;;;;0.60;0.60;;;11.60;82.60;;;;;;5043075;28;20472;-63
2023/04/07 07:45:05;;;;;;;2.10;1.48;;;11.60;82.70;;;;;;5024031;28;20029;-64
2023/04/07 07:47:31;;;;;;;1.88;0.73;;;11.60;82.70;;;;;;5025038;28;20446;-65
2023/04/07 07:49:57;;;;;;;3.88;1.20;;;11.60;82.60;;;;;;5042918;28;20199;-63
2023/04/07 07:52:22;;;;;;;2.83;1.58;;;11.70;82.50;;;;;;5045871;28;20060;-69
2023/04/07 07:54:50;;;;;;;2.55;1.52;;;11.60;82.40;;;;;;5043520;28;20037;-64
2023/04/07 07:57:15;;;;;;;3.35;1.17;;;11.60;82.50;;;;;;5043172;28;20452;-63
2023/04/07 07:59:41;;;;;;;5.30;1.17;;;11.60;82.60;;;;;;5042620;28;20033;-69
2023/04/07 08:02:07;;;;;;;0.52;0.50;;;11.70;82.50;;;;;;5046966;28;20033;-70
2023/04/07 08:04:34;;;;;;;0.88;0.80;;;11.70;82.40;;;;;;5048203;28;20029;-64
2023/04/07 08:07:00;;;;;;;4.93;1.38;;;11.80;82.30;;;;;;5026300;28;20344;-70
2023/04/07 08:09:26;;;;;;;2.90;1.40;;;11.80;82.20;;;;;;5042572;28;20120;-70
2023/04/07 08:11:52;;;;;;;1.23;0.60;;;11.80;82.00;;;;;;5041622;28;20040;-64
2023/04/07 08:14:18;;;;;;;0.85;0.70;;;11.90;81.90;;;;;;5029826;28;20117;-69
2023/04/07 08:16:44;;;;;;;0.55;0.40;;;11.90;81.80;;;;;;5027919;28;20036;-70
2023/04/07 08:19:10;;;;;;;3.08;0.77;;;11.90;81.90;;;;;;5024392;28;20029;-65
2023/04/07 08:21:35;;;;;;;0.63;0.60;;;11.90;81.90;;;;;;5018177;28;20056;-64
2023/04/07 08:24:01;;;;;;;2.42;0.90;;;11.90;81.80;;;;;;5042441;28;20036;-63
2023/04/07 08:26:27;;;;;;;0.47;0.35;;;11.90;81.60;;;;;;5046325;28;20029;-71
2023/04/07 08:28:54;;;;;;;1.90;0.65;;;11.90;81.50;;;;;;5022864;28;20021;-71
2023/04/07 08:31:20;;;;;;;0.73;0.68;;;11.90;81.60;;;;;;5036883;28;20087;-72
2023/04/07 08:33:46;;;;;;;2.53;0.90;;;11.90;81.70;;;;;;5035547;28;20108;-72
2023/04/07 08:36:11;;;;;;;1.52;0.68;;;11.90;81.70;;;;;;5042654;28;20029;-71
2023/04/07 08:38:37;;;;;;;0.75;0.55;;;11.80;81.70;;;;;;5041478;28;20029;-71
2023/04/07 08:41:16;;;;;;;1.42;1.00;;;11.80;81.80;;;;;;5027622;28;20384;-68
2023/04/07 08:43:45;;;;;;;0.70;0.65;;;11.80;81.80;;;;;;5044945;28;20035;-72
2023/04/07 08:46:12;;;;;;;4.53;0.90;;;11.80;81.90;;;;;;5044821;28;20079;-69
2023/04/07 08:48:41;;;;;;;0.90;0.60;;;11.80;81.80;;;;;;5022673;28;20033;-67
2023/04/07 08:51:09;;;;;;;1.08;0.68;;;11.90;81.80;;;;;;5042578;28;20041;-65
2023/04/07 08:53:51;;;;;;;0.65;0.52;;;11.90;81.60;;;;;;5024769;28;20473;-69
2023/04/07 08:56:17;;;;;;;0.57;0.57;;;11.90;81.30;;;;;;5040921;28;20029;-70
2023/04/07 08:58:47;;;;;;;1.13;0.68;;;11.90;81.40;;;;;;5016946;28;20437;-70
2023/04/07 09:01:15;;;;;;;1.73;0.93;;;11.90;81.30;;;;;;5039197;28;20637;-69
2023/04/07 09:03:43;;;;;;;3.20;0.90;;;11.90;81.50;;;;;;5022788;28;20124;-64
2023/04/07 09:06:10;;;;;;;2.90;0.70;;;11.90;81.40;;;;;;5020379;28;20067;-70
2023/04/07 09:08:36;;;;;;;2.78;0.90;;;12.00;81.30;;;;;;5033468;28;20045;-71
2023/04/07 09:11:02;;;;;;;1.45;0.90;;;12.00;81.20;;;;;;5031591;28;20052;-72
2023/04/07 09:13:27;;;;;;;4.55;1.00;;;12.00;81.30;;;;;;5033288;28;20134;-70
2023/04/07 09:15:53;;;;;;;1.48;0.70;;;11.90;81.40;;;;;;5044038;28;20071;-72
2023/04/07 09:18:19;;;;;;;0.70;0.70;;;12.00;81.40;;;;;;5025239;28;20030;-69
2023/04/07 09:20:59;;;;;;;0.98;0.77;;;12.00;81.20;;;;;;5020581;28;20045;-71
2023/04/07 09:23:36;;;;;;;0.80;0.60;;;12.10;81.00;;;;;;5043400;28;20025;-65
2023/04/07 09:26:18;;;;;;;0.82;0.57;;;12.10;81.10;;;;;;5027504;28;20033;-65
2023/04/07 09:28:46;;;;;;;1.33;0.85;;;12.10;81.10;;;;;;5038900;28;20022;-72
2023/04/07 09:31:11;;;;;;;1.48;0.75;;;12.10;81.10;;;;;;5031838;28;21401;-71
2023/04/07 09:33:37;;;;;;;0.40;0.30;;;12.00;81.10;;;;;;5042066;28;20037;-71
2023/04/07 09:36:05;;;;;;;0.85;0.70;;;12.10;81.30;;;;;;5021363;28;20090;-65
2023/04/07 09:38:41;;;;;;;1.42;0.75;;;12.20;81.20;;;;;;5022071;28;20032;-72
2023/04/07 09:41:15;;;;;;;2.17;1.05;;;12.40;80.90;;;;;;5036814;28;20032;-72
2023/04/07 09:43:45;;;;;;;2.40;1.17;;;12.50;80.60;;;;;;5039745;28;20040;-72
2023/04/07 09:46:15;;;;;;;3.25;1.00;;;12.60;80.50;;;;;;5039660;28;20025;-72
2023/04/07 09:48:42;;;;;;;2.05;1.48;;;12.60;80.40;;;;;;5031265;28;20597;-71
2023/04/07 09:51:13;;;;;;;2.15;0.80;;;12.50;80.50;;;;;;5020939;28;20128;-71
2023/04/07 09:53:47;;;;;;;1.88;1.20;;;12.40;80.80;;;;;;5039355;28;20032;-70
2023/04/07 09:56:21;;;;;;;1.90;1.23;;;12.30;81.00;;;;;;5042153;28;20025;-70
2023/04/07 09:58:47;;;;;;;1.75;1.10;;;12.10;81.20;;;;;;5037889;28;20100;-64
2023/04/07 10:01:18;;;;;;;2.78;1.00;;;12.10;81.60;;;;;;5032183;28;20048;-63
2023/04/07 10:03:45;;;;;;;2.05;1.38;;;12.00;81.60;;;;;;5028630;28;20033;-70
2023/04/07 10:06:11;;;;;;;2.40;1.15;;;12.00;81.80;;;;;;5041432;28;20030;-70
2023/04/07 10:08:40;;;;;;;1.33;1.13;;;12.00;81.80;;;;;;5050454;28;20041;-64
2023/04/07 10:11:06;;;;;;;1.67;1.10;;;12.10;82.00;;;;;;5039267;28;20105;-70
2023/04/07 10:13:35;;;;;;;1.50;1.00;;;12.10;82.00;;;;;;5021251;28;20052;-70
2023/04/07 10:16:06;;;;;;;2.92;1.17;;;12.20;81.90;;;;;;5032482;28;20789;-70
2023/04/07 10:18:34;;;;;;;1.98;1.38;;;12.20;81.70;;;;;;5044685;28;20520;-70
2023/04/07 10:21:02;;;;;;;1.83;1.02;;;12.20;81.40;;;;;;5046310;28;20041;-70
2023/04/07 10:23:55;;;;;;;3.17;1.20;;;12.20;81.30;;;;;;5043676;28;20045;-64
2023/04/07 10:26:25;;;;;;;2.42;1.13;;;12.20;81.10;;;;;;5049091;28;20037;-63
2023/04/07 10:28:56;;;;;;;1.95;1.08;;;12.20;81.20;;;;;;5049252;28;20025;-64
2023/04/07 10:31:22;;;;;;;3.65;1.30;;;12.10;81.00;;;;;;5025281;28;20033;-70
2023/04/07 10:33:50;;;;;;;10.43;1.60;;;12.10;81.20;;;;;;5048905;28;20033;-70
2023/04/07 10:36:18;;;;;;;1.95;0.63;;;12.10;81.30;;;;;;5051809;28;20136;-64
2023/04/07 10:39:06;;;;;;;1.42;1.00;;;12.20;81.30;;;;;;5041396;28;20064;-65
2023/04/07 10:41:41;;;;;;;2.17;1.17;;;12.20;81.00;;;;;;5047651;28;20033;-65
2023/04/07 10:44:09;;;;;;;1.15;0.77;;;12.30;81.00;;;;;;5049996;28;20453;-69
2023/04/07 10:46:44;;;;;;;0.90;0.70;;;12.40;80.80;;;;;;5040618;28;20222;-69
2023/04/07 10:49:12;;;;;;;2.00;0.80;;;12.50;80.60;;;;;;5020593;28;20146;-69
2023/04/07 10:51:38;;;;;;;3.80;1.15;;;12.50;80.20;;;;;;5043446;28;20022;-69
2023/04/07 10:54:21;;;;;;;0.63;0.63;;;12.50;80.00;;;;;;5043925;28;20033;-65
2023/04/07 10:57:02;;;;;;;3.22;0.52;;;12.50;80.00;;;;;;5044561;28;20029;-66
2023/04/07 10:59:29;;;;;;;2.30;1.00;;;12.50;79.90;;;;;;5041847;28;20056;-66
2023/04/07 11:02:13;;;;;;;1.42;0.80;;;12.40;80.00;;;;;;5026321;28;20022;-65
2023/04/07 11:04:44;;;;;;;1.00;0.60;;;12.40;80.20;;;;;;5043049;28;20052;-66
2023/04/07 11:07:12;;;;;;;1.48;0.95;;;12.30;80.40;;;;;;5039426;28;20029;-69
2023/04/07 11:09:37;;;;;;;0.90;0.70;;;12.30;80.60;;;;;;5040385;28;20041;-69
2023/04/07 11:12:06;;;;;;;1.25;0.82;;;12.30;80.70;;;;;;5039378;28;20032;-66
2023/04/07 11:14:33;;;;;;;1.35;0.73;;;12.40;80.70;;;;;;5027762;28;20441;-69
2023/04/07 11:17:02;;;;;;;1.08;0.60;;;12.40;80.50;;;;;;5026929;28;20032;-69
2023/04/07 11:19:30;;;;;;;1.75;0.77;;;12.50;80.80;;;;;;5020171;28;20488;-67
2023/04/07 11:22:16;;;;;;;3.25;0.80;;;12.50;80.80;;;;;;5023466;28;20102;-65
2023/04/07 11:24:44;;;;;;;1.25;0.88;;;12.50;80.70;;;;;;5045798;28;20469;-69
2023/04/07 11:27:15;;;;;;;1.55;0.98;;;12.50;80.70;;;;;;5042803;28;20040;-65
2023/04/07 11:29:41;;;;;;;1.40;0.80;;;12.50;80.70;;;;;;5042735;28;20040;-65
2023/04/07 11:32:07;;;;;;;1.70;0.68;;;12.40;80.80;;;;;;5045848;28;20044;-66
2023/04/07 11:34:34;;;;;;;3.67;0.63;;;12.30;81.10;;;;;;5042094;28;20049;-66
2023/04/07 11:37:20;;;;;;;1.58;1.25;;;12.30;81.40;;;;;;5040971;28;20025;-68
2023/04/07 11:39:56;;;;;;;1.40;1.10;;;12.20;81.50;;;;;;5022662;28;20021;-69
2023/04/07 11:42:36;;;;;;;1.33;0.90;;;12.10;81.80;;;;;;5047188;28;20033;-68
2023/04/07 11:45:02;;;;;;;1.65;1.40;;;12.10;82.00;;;;;;5043956;28;20116;-65
2023/04/07 11:47:38;;;;;;;4.45;1.10;;;12.10;82.10;;;;;;5037994;28;20128;-66
2023/04/07 11:50:05;;;;;;;1.15;0.80;;;12.20;82.10;;;;;;5039647;28;20038;-66
2023/04/07 11:52:41;;;;;;;3.00;1.40;;;12.20;82.00;;;;;;5037043;28;20029;-68
2023/04/07 11:55:23;;;;;;;2.30;0.98;;;12.30;82.00;;;;;;5030062;28;20044;-68
2023/04/07 11:57:52;;;;;;;2.47;1.52;;;12.30;82.00;;;;;;5040293;28;20026;-68
2023/04/07 12:00:19;;;;;;;1.88;1.10;;;12.30;82.00;;;;;;5019373;28;20029;-68
2023/04/07 12:02:45;;;;;;;2.78;1.20;;;12.40;81.90;;;;;;5044266;28;20022;-66
2023/04/07 12:05:11;;;;;;;2.20;1.40;;;12.40;81.80;;;;;;5039325;28;20056;-65
2023/04/07 12:07:38;;;;;;;2.70;1.27;;;12.40;81.80;;;;;;5020023;28;20033;-65
2023/04/07 12:10:27;;;;;;;2.15;1.08;;;12.50;81.80;;;;;;5026390;28;20086;-65
2023/04/07 12:12:52;;;;;;;2.70;1.60;;;12.50;81.90;;;;;;5037500;28;20037;-64
2023/04/07 12:15:19;;;;;;;2.63;1.17;;;12.50;82.00;;;;;;5044868;28;20035;-65
2023/04/07 12:17:46;;;;;;;2.20;1.20;;;12.60;82.10;;;;;;5044001;28;20400;-65
2023/04/07 12:20:12;;;;;;;2.45;1.33;;;12.70;82.00;;;;;;5044468;28;20044;-66
2023/04/07 12:22:39;;;;;;;1.58;1.20;;;12.70;82.50;;;;;;5039673;28;20037;-66
2023/04/07 12:25:05;;;;;;;1.15;0.93;;;12.70;81.70;;;;;;5045774;28;20033;-65
2023/04/07 12:27:30;;;;;;;1.83;0.98;;;12.70;81.90;;;;;;5039021;28;20033;-66
2023/04/07 12:29:56;;;;;;;4.82;2.00;;;12.80;81.70;;;;;;5026458;28;20059;-68
2023/04/07 12:32:22;;;;;;;2.08;1.20;;;12.80;81.60;;;;;;5014274;28;20025;-65
2023/04/07 12:34:47;;;;;;;1.10;0.90;;;12.70;81.60;;;;;;5039745;28;20033;-70
2023/04/07 12:37:13;;;;;;;3.60;1.30;;;12.70;81.60;;;;;;5036756;28;20143;-69
2023/04/07 12:39:38;;;;;;;1.73;0.90;;;12.80;81.70;;;;;;5028969;28;20109;-66
2023/04/07 12:42:04;;;;;;;1.27;1.17;;;12.80;81.50;;;;;;5040387;28;20037;-66
2023/04/07 12:44:30;;;;;;;1.65;1.35;;;12.80;81.50;;;;;;5038579;28;20072;-66
2023/04/07 12:46:56;;;;;;;1.92;1.15;;;12.70;81.30;;;;;;5041050;28;20095;-66
2023/04/07 12:49:21;;;;;;;2.42;1.20;;;12.50;81.50;;;;;;5024520;28;20024;-68